Terminal Aerodrome Forecast
Issued by NWS Twin Cities, MN

Home | Current Version | Previous Version | Text Only | Print | Product List | Glossary Off
Versions: 1 2 3 4 5 6 7 8 9 10 11 12 13 14 15 16 17

000
FTUS43 KMPX 201525 AAA
TAFEAU
TAF AMD
KEAU 201525Z 2015/2112 18008KT P6SM SCT100
     FM201800 22010KT P6SM SCT250
     FM202200 29003KT P6SM SCT050 BKN150
     FM210500 VRB03KT P6SM SCT060 BKN100=

USA.gov is the U.S. government's official web portal to all federal, state and local government web resources and services.